createdAt,value
2023-11-30T00:00:50.481Z,16.00
2023-11-30T00:01:52.981Z,13.63
2023-11-30T00:02:55.872Z,18.25
2023-11-30T00:03:59.966Z,15.63
2023-11-30T00:05:07.925Z,15.88
2023-11-30T00:06:10.858Z,17.58
2023-11-30T00:07:14.044Z,16.30
2023-11-30T00:08:16.619Z,16.02
2023-11-30T00:09:19.433Z,17.80
2023-11-30T00:10:21.904Z,16.25
2023-11-30T00:11:24.591Z,16.25
2023-11-30T00:12:27.335Z,16.15
2023-11-30T00:13:29.923Z,16.88
2023-11-30T00:14:32.808Z,15.77
2023-11-30T00:15:35.414Z,16.98
2023-11-30T00:16:37.817Z,16.88
2023-11-30T00:17:40.751Z,19.58
2023-11-30T00:18:43.564Z,15.95
2023-11-30T00:19:46.353Z,16.40
2023-11-30T00:20:48.802Z,16.15
2023-11-30T00:21:51.226Z,17.95
2023-11-30T00:22:53.888Z,17.33
2023-11-30T00:23:56.603Z,18.25
2023-11-30T00:24:59.149Z,17.20
2023-11-30T00:26:01.897Z,20.42
2023-11-30T00:27:05.550Z,18.67
2023-11-30T00:28:08.839Z,18.20
2023-11-30T00:29:11.120Z,17.45
2023-11-30T00:30:13.958Z,18.10
2023-11-30T00:31:16.726Z,17.00
2023-11-30T00:32:19.124Z,17.85
2023-11-30T00:33:22.050Z,18.10
2023-11-30T00:34:24.513Z,17.67
2023-11-30T00:35:27.172Z,18.17
2023-11-30T00:36:30.328Z,18.73
2023-11-30T00:37:32.873Z,19.38
2023-11-30T00:38:35.324Z,18.20
2023-11-30T00:39:37.795Z,17.27
2023-11-30T00:40:40.726Z,17.17
2023-11-30T00:41:44.003Z,17.17
2023-11-30T00:42:46.866Z,17.42
2023-11-30T00:43:49.818Z,19.02
2023-11-30T00:44:52.541Z,17.83
2023-11-30T00:46:03.338Z,20.25
2023-11-30T00:47:12.965Z,17.88
2023-11-30T00:48:15.790Z,17.67
2023-11-30T00:49:18.199Z,16.00
2023-11-30T00:50:20.623Z,17.15
2023-11-30T00:51:23.063Z,18.58
2023-11-30T00:52:25.785Z,18.70
2023-11-30T00:53:28.565Z,18.33
2023-11-30T00:54:31.050Z,17.63
2023-11-30T00:55:33.873Z,17.17
2023-11-30T00:56:36.576Z,15.93
2023-11-30T00:57:39.540Z,18.65
2023-11-30T00:58:42.239Z,15.35
2023-11-30T00:59:45.161Z,17.35
2023-11-30T01:00:48.193Z,16.98
2023-11-30T01:01:51.076Z,18.27
2023-11-30T01:02:53.644Z,19.75
2023-11-30T01:03:56.664Z,18.20
2023-11-30T01:04:59.351Z,16.30
2023-11-30T01:06:01.649Z,19.30
2023-11-30T01:07:04.490Z,15.07
2023-11-30T01:08:07.158Z,18.13
2023-11-30T01:09:09.852Z,17.08
2023-11-30T01:10:12.573Z,18.83
2023-11-30T01:11:15.306Z,16.98
2023-11-30T01:12:17.767Z,18.23
2023-11-30T01:13:20.360Z,17.95
2023-11-30T01:14:23.076Z,16.02
2023-11-30T01:15:25.422Z,18.17
2023-11-30T01:16:28.120Z,17.48
2023-11-30T01:17:30.797Z,17.05
2023-11-30T01:18:34.193Z,18.30
2023-11-30T01:19:36.871Z,16.85
2023-11-30T01:20:41.967Z,18.50
2023-11-30T01:21:44.669Z,17.25
2023-11-30T01:22:47.511Z,18.38
2023-11-30T01:23:50.272Z,16.90
2023-11-30T01:24:52.939Z,17.15
2023-11-30T01:25:55.540Z,18.40
2023-11-30T01:26:58.237Z,18.88
2023-11-30T01:28:01.859Z,15.93
2023-11-30T01:29:04.523Z,15.27
2023-11-30T01:30:07.665Z,18.65
2023-11-30T01:31:10.562Z,17.25
2023-11-30T01:32:13.068Z,19.23
2023-11-30T01:33:15.900Z,16.85
2023-11-30T01:34:19.042Z,16.80
2023-11-30T01:35:21.741Z,14.32
2023-11-30T01:36:24.168Z,17.60
2023-11-30T01:37:27.542Z,18.45
2023-11-30T01:38:30.189Z,15.10
2023-11-30T01:39:32.979Z,18.58
2023-11-30T01:40:35.668Z,17.88
2023-11-30T01:41:38.225Z,17.73
2023-11-30T01:42:41.335Z,17.70
2023-11-30T01:43:43.930Z,18.48
2023-11-30T01:44:46.912Z,18.48
2023-11-30T01:46:02.081Z,17.48
2023-11-30T01:47:06.637Z,12.73
2023-11-30T01:48:09.424Z,15.90
2023-11-30T01:49:13.040Z,17.65
2023-11-30T01:50:16.273Z,16.75
2023-11-30T01:51:19.119Z,16.63
2023-11-30T01:52:22.096Z,16.55
2023-11-30T01:53:24.988Z,16.88
2023-11-30T01:54:28.315Z,16.77
2023-11-30T01:55:31.270Z,18.65
2023-11-30T01:56:34.410Z,18.58
2023-11-30T01:57:36.992Z,18.42
2023-11-30T01:58:39.733Z,17.10
2023-11-30T01:59:44.210Z,17.40
2023-11-30T02:00:47.744Z,15.32
2023-11-30T02:01:50.379Z,17.10
2023-11-30T02:02:53.655Z,16.95
2023-11-30T02:03:56.414Z,15.48
2023-11-30T02:04:59.055Z,17.40
2023-11-30T02:06:01.555Z,16.38
2023-11-30T02:07:04.354Z,17.88
2023-11-30T02:08:07.199Z,19.23
2023-11-30T02:09:09.875Z,17.58
2023-11-30T02:10:12.479Z,19.67
2023-11-30T02:11:14.943Z,17.10
2023-11-30T02:12:17.847Z,18.00
2023-11-30T02:13:20.231Z,18.20
2023-11-30T02:14:22.827Z,16.83
2023-11-30T02:15:25.584Z,15.68
2023-11-30T02:16:28.416Z,16.60
2023-11-30T02:17:31.129Z,18.10
2023-11-30T02:18:34.091Z,18.27
2023-11-30T02:19:36.866Z,19.30
2023-11-30T02:20:39.618Z,16.55
2023-11-30T02:21:52.232Z,18.25
2023-11-30T02:22:55.385Z,19.80
2023-11-30T02:23:58.123Z,16.48
2023-11-30T02:25:01.255Z,19.63
2023-11-30T02:26:03.783Z,16.38
2023-11-30T02:27:06.313Z,17.30
2023-11-30T02:28:08.790Z,17.67
2023-11-30T02:29:16.888Z,17.35
2023-11-30T02:30:20.088Z,17.40
2023-11-30T02:31:22.595Z,17.52
2023-11-30T02:32:27.691Z,16.58
2023-11-30T02:33:30.401Z,16.77
2023-11-30T02:34:32.736Z,14.32
2023-11-30T02:35:35.058Z,18.80
2023-11-30T02:36:38.894Z,19.90
2023-11-30T02:37:41.313Z,19.60
2023-11-30T02:38:44.134Z,18.08
2023-11-30T02:39:46.857Z,16.90
2023-11-30T02:40:49.495Z,16.92
2023-11-30T02:41:51.941Z,17.80
2023-11-30T02:42:54.537Z,18.33
2023-11-30T02:43:58.449Z,19.30
2023-11-30T02:45:01.147Z,19.27
2023-11-30T02:46:03.959Z,18.02
2023-11-30T02:47:06.675Z,15.95
2023-11-30T02:48:09.486Z,17.67
2023-11-30T02:49:13.223Z,16.77
2023-11-30T02:50:18.529Z,20.05
2023-11-30T02:51:21.195Z,19.67
2023-11-30T02:52:23.581Z,17.80
2023-11-30T02:53:26.266Z,18.95
2023-11-30T02:54:28.895Z,19.23
2023-11-30T02:55:31.541Z,20.42
2023-11-30T02:56:40.704Z,18.45
2023-11-30T02:57:43.438Z,19.85
2023-11-30T02:58:46.082Z,18.10
2023-11-30T02:59:48.457Z,18.23
2023-11-30T03:00:51.036Z,18.38
2023-11-30T03:01:54.182Z,20.05
2023-11-30T03:02:57.555Z,20.65
2023-11-30T03:04:00.251Z,19.73
2023-11-30T03:05:03.008Z,21.13
2023-11-30T03:06:13.499Z,18.80
2023-11-30T03:07:16.209Z,21.00
2023-11-30T03:08:18.676Z,20.85
2023-11-30T03:09:23.992Z,21.75
2023-11-30T03:10:26.799Z,18.92
2023-11-30T03:11:29.461Z,19.65
2023-11-30T03:12:33.193Z,22.25
2023-11-30T03:13:35.607Z,20.92
2023-11-30T03:14:38.535Z,23.45
2023-11-30T03:15:45.421Z,19.38
2023-11-30T03:16:50.498Z,23.13
2023-11-30T03:17:53.078Z,21.60
2023-11-30T03:19:10.397Z,20.20
2023-11-30T03:20:19.220Z,21.13
2023-11-30T03:21:22.087Z,22.77
2023-11-30T03:22:24.803Z,23.33
2023-11-30T03:23:27.610Z,22.90
2023-11-30T03:24:32.601Z,22.30
2023-11-30T03:25:37.304Z,24.35
2023-11-30T03:26:39.708Z,21.98
2023-11-30T03:27:42.208Z,22.00
2023-11-30T03:28:44.685Z,20.48
2023-11-30T03:29:47.383Z,24.67
2023-11-30T03:30:49.874Z,22.10
2023-11-30T03:31:52.563Z,23.27
2023-11-30T03:32:57.527Z,23.73
2023-11-30T03:34:00.277Z,22.27
2023-11-30T03:35:02.940Z,22.48
2023-11-30T03:36:06.316Z,22.17
2023-11-30T03:37:09.484Z,21.73
2023-11-30T03:38:12.232Z,22.58
2023-11-30T03:39:15.017Z,19.58
2023-11-30T03:40:17.477Z,22.45
2023-11-30T03:41:24.345Z,23.00
2023-11-30T03:42:27.391Z,22.50
2023-11-30T03:43:30.858Z,22.50
2023-11-30T03:44:33.677Z,20.85
2023-11-30T03:45:36.397Z,23.52
2023-11-30T03:46:39.152Z,22.17
2023-11-30T03:47:41.774Z,24.75
2023-11-30T03:48:45.699Z,23.10
2023-11-30T03:49:48.217Z,21.50
2023-11-30T03:50:51.401Z,21.23
2023-11-30T03:51:55.513Z,21.55
2023-11-30T03:52:58.196Z,22.88
2023-11-30T03:54:00.643Z,20.50
2023-11-30T03:55:03.369Z,21.55
2023-11-30T03:56:06.405Z,21.55
2023-11-30T03:57:08.817Z,20.70
2023-11-30T03:58:11.190Z,23.38
2023-11-30T03:59:13.669Z,22.95
2023-11-30T04:00:17.833Z,19.42
2023-11-30T04:01:25.152Z,21.25
2023-11-30T04:02:28.049Z,22.63
2023-11-30T04:03:30.872Z,22.73
2023-11-30T04:04:33.580Z,22.70
2023-11-30T04:05:35.950Z,22.02
2023-11-30T04:06:38.515Z,21.67
2023-11-30T04:07:41.629Z,22.05
2023-11-30T04:08:43.902Z,21.42
2023-11-30T04:09:47.837Z,20.00
2023-11-30T04:11:53.118Z,20.17
2023-11-30T04:12:55.490Z,19.88
2023-11-30T04:14:08.140Z,21.88
2023-11-30T04:15:10.945Z,21.67
2023-11-30T04:16:17.270Z,21.63
2023-11-30T04:17:20.222Z,25.90
2023-11-30T04:18:23.231Z,23.52
2023-11-30T04:19:25.761Z,25.38
2023-11-30T04:20:28.640Z,22.05
2023-11-30T04:21:31.782Z,22.48
2023-11-30T04:22:34.244Z,22.60
2023-11-30T04:23:36.848Z,21.27
2023-11-30T04:24:39.529Z,22.17
2023-11-30T04:25:41.850Z,22.02
2023-11-30T04:26:44.446Z,18.85
2023-11-30T04:27:47.100Z,22.23
2023-11-30T04:28:49.413Z,21.90
2023-11-30T04:29:51.992Z,21.67
2023-11-30T04:30:55.922Z,24.33
2023-11-30T04:31:59.398Z,23.05
2023-11-30T04:33:02.223Z,25.40
2023-11-30T04:34:04.853Z,23.77
2023-11-30T04:35:07.811Z,21.23
2023-11-30T04:36:14.719Z,24.17
2023-11-30T04:37:18.592Z,23.95
2023-11-30T04:39:24.431Z,20.65
2023-11-30T04:40:30.209Z,22.13
2023-11-30T04:41:32.636Z,22.33
2023-11-30T04:42:37.494Z,23.60
2023-11-30T04:43:41.473Z,21.33
2023-11-30T04:44:47.208Z,24.33
2023-11-30T04:45:50.007Z,22.55
2023-11-30T04:46:52.703Z,25.80
2023-11-30T04:47:55.720Z,24.92
2023-11-30T04:49:00.048Z,25.95
2023-11-30T04:50:02.420Z,31.00
2023-11-30T04:51:05.183Z,30.23
2023-11-30T04:52:07.715Z,26.70
2023-11-30T04:53:10.319Z,26.45
2023-11-30T04:54:13.525Z,26.65
2023-11-30T04:55:18.376Z,26.25
2023-11-30T04:56:21.075Z,27.30
2023-11-30T04:57:23.911Z,25.63
2023-11-30T04:58:27.011Z,24.00
2023-11-30T04:59:29.538Z,26.02
2023-11-30T05:00:32.185Z,24.35
2023-11-30T05:01:37.425Z,25.55
2023-11-30T05:02:52.527Z,25.33
2023-11-30T05:03:57.326Z,24.58
2023-11-30T05:05:00.371Z,25.85
2023-11-30T05:06:03.580Z,25.75
2023-11-30T05:07:06.366Z,25.17
2023-11-30T05:08:09.086Z,25.88
2023-11-30T05:09:11.715Z,25.55
2023-11-30T05:10:14.124Z,25.48
2023-11-30T05:11:17.283Z,24.65
2023-11-30T05:12:20.107Z,25.40
2023-11-30T05:13:22.805Z,27.90
2023-11-30T05:14:28.011Z,28.50
2023-11-30T05:15:30.848Z,27.20
2023-11-30T05:16:33.690Z,29.60
2023-11-30T05:17:36.169Z,28.85
2023-11-30T05:18:38.877Z,29.10
2023-11-30T05:19:44.081Z,29.10
2023-11-30T05:20:46.839Z,28.88
2023-11-30T05:21:49.206Z,26.63
2023-11-30T05:22:51.835Z,30.20
2023-11-30T05:23:54.856Z,28.33
2023-11-30T05:24:57.538Z,28.77
2023-11-30T05:26:00.434Z,30.60
2023-11-30T05:27:03.245Z,30.42
2023-11-30T05:28:07.701Z,30.27
2023-11-30T05:29:10.433Z,31.05
2023-11-30T05:30:15.474Z,29.08
2023-11-30T05:31:18.325Z,30.67
2023-11-30T05:32:22.903Z,30.52
2023-11-30T05:33:28.340Z,29.67
2023-11-30T05:34:33.833Z,27.38
2023-11-30T05:35:37.523Z,29.65
2023-11-30T05:36:39.946Z,30.13
2023-11-30T05:37:42.721Z,28.58
2023-11-30T05:38:45.089Z,28.98
2023-11-30T05:39:47.403Z,27.92
2023-11-30T05:40:50.149Z,27.20
2023-11-30T05:41:52.494Z,28.75
2023-11-30T05:42:55.595Z,29.25
2023-11-30T05:43:58.257Z,26.77
2023-11-30T05:45:01.240Z,29.05
2023-11-30T05:46:04.175Z,29.85
2023-11-30T05:47:06.766Z,27.85
2023-11-30T05:48:11.973Z,29.40
2023-11-30T05:49:14.640Z,30.45
2023-11-30T05:50:18.163Z,32.65
2023-11-30T05:51:20.802Z,32.22
2023-11-30T05:52:23.885Z,31.40
2023-11-30T05:53:34.253Z,31.05
2023-11-30T05:54:36.970Z,29.70
2023-11-30T05:55:39.777Z,33.35
2023-11-30T05:56:42.527Z,33.58
2023-11-30T05:57:45.315Z,33.83
2023-11-30T05:58:48.076Z,32.58
2023-11-30T05:59:50.435Z,33.67
2023-11-30T06:00:53.131Z,30.42
2023-11-30T06:01:55.800Z,28.13
2023-11-30T06:02:58.371Z,29.08
2023-11-30T06:04:01.309Z,28.15
2023-11-30T06:05:04.706Z,29.42
2023-11-30T06:06:12.366Z,29.75
2023-11-30T06:07:14.690Z,29.25
2023-11-30T06:08:17.203Z,30.27
2023-11-30T06:09:19.980Z,29.60
2023-11-30T06:10:22.784Z,27.05
2023-11-30T06:11:25.497Z,29.40
2023-11-30T06:12:27.948Z,27.90
2023-11-30T06:13:30.603Z,24.83
2023-11-30T06:14:33.082Z,27.05
2023-11-30T06:15:35.935Z,25.70
2023-11-30T06:16:38.692Z,26.42
2023-11-30T06:17:41.824Z,26.58
2023-11-30T06:18:44.603Z,28.25
2023-11-30T06:19:49.860Z,26.95
2023-11-30T06:20:52.415Z,28.55
2023-11-30T06:21:54.828Z,29.00
2023-11-30T06:22:57.515Z,28.42
2023-11-30T06:24:00.165Z,25.08
2023-11-30T06:25:02.577Z,25.40
2023-11-30T06:26:06.339Z,27.40
2023-11-30T06:27:08.846Z,26.92
2023-11-30T06:28:11.176Z,29.83
2023-11-30T06:29:14.845Z,26.13
2023-11-30T06:30:17.612Z,27.00
2023-11-30T06:31:20.260Z,26.08
2023-11-30T06:32:23.147Z,25.13
2023-11-30T06:33:25.910Z,26.20
2023-11-30T06:34:29.959Z,25.35
2023-11-30T06:35:32.451Z,27.77
2023-11-30T06:36:35.495Z,25.13
2023-11-30T06:37:38.262Z,25.33
2023-11-30T06:38:40.762Z,27.30
2023-11-30T06:39:43.562Z,27.05
2023-11-30T06:40:48.667Z,26.52
2023-11-30T06:41:54.526Z,25.55
2023-11-30T06:42:59.377Z,25.30
2023-11-30T06:44:01.917Z,27.50
2023-11-30T06:45:09.184Z,25.50
2023-11-30T06:46:22.061Z,26.27
2023-11-30T06:47:24.728Z,24.65
2023-11-30T06:48:27.984Z,25.25
2023-11-30T06:49:30.708Z,29.40
2023-11-30T06:50:33.803Z,23.95
2023-11-30T06:51:37.806Z,28.70
2023-11-30T06:52:40.484Z,27.58
2023-11-30T06:53:43.494Z,26.50
2023-11-30T06:54:46.216Z,24.70
2023-11-30T06:55:49.232Z,24.58
2023-11-30T06:56:51.963Z,25.90
2023-11-30T06:57:54.311Z,24.13
2023-11-30T06:58:56.836Z,24.88
2023-11-30T07:00:01.891Z,24.92
2023-11-30T07:01:13.520Z,22.27
2023-11-30T07:02:16.235Z,23.90
2023-11-30T07:03:18.909Z,24.58
2023-11-30T07:04:21.821Z,23.08
2023-11-30T07:05:24.473Z,23.83
2023-11-30T07:06:27.393Z,25.17
2023-11-30T07:07:34.267Z,24.23
2023-11-30T07:08:39.023Z,22.73
2023-11-30T07:09:41.487Z,22.55
2023-11-30T07:10:44.187Z,24.85
2023-11-30T07:11:46.998Z,24.15
2023-11-30T07:12:50.812Z,24.65
2023-11-30T07:14:02.055Z,24.50
2023-11-30T07:15:05.230Z,26.98
2023-11-30T07:16:09.165Z,23.83
2023-11-30T07:17:11.966Z,24.08
2023-11-30T07:18:15.230Z,25.52
2023-11-30T07:19:17.805Z,30.13
2023-11-30T07:20:20.608Z,28.33
2023-11-30T07:21:23.336Z,26.98
2023-11-30T07:22:27.441Z,22.70
2023-11-30T07:24:32.848Z,20.58
2023-11-30T07:25:35.916Z,24.73
2023-11-30T07:26:38.646Z,23.08
2023-11-30T07:27:41.731Z,24.67
2023-11-30T07:28:48.822Z,24.25
2023-11-30T07:29:55.103Z,24.05
2023-11-30T07:30:57.971Z,26.55
2023-11-30T07:32:00.597Z,26.90
2023-11-30T07:33:03.964Z,27.63
2023-11-30T07:34:07.774Z,25.52
2023-11-30T07:35:10.755Z,28.25
2023-11-30T07:36:14.357Z,32.30
2023-11-30T07:37:19.403Z,31.13
2023-11-30T07:38:22.182Z,28.58
2023-11-30T07:39:24.712Z,28.17
2023-11-30T07:40:27.965Z,29.90
2023-11-30T07:41:30.494Z,27.58
2023-11-30T07:42:37.436Z,28.48
2023-11-30T07:43:40.474Z,29.38
2023-11-30T07:44:43.149Z,28.70
2023-11-30T07:45:46.220Z,33.38
2023-11-30T07:46:49.606Z,27.27
2023-11-30T07:47:52.309Z,29.25
2023-11-30T07:48:55.973Z,28.20
2023-11-30T07:49:58.735Z,28.13
2023-11-30T07:51:01.567Z,26.95
2023-11-30T07:52:04.191Z,24.52
2023-11-30T07:53:09.878Z,25.70
2023-11-30T07:54:12.919Z,25.75
2023-11-30T07:55:15.617Z,23.27
2023-11-30T07:56:21.633Z,23.05
2023-11-30T07:57:26.301Z,23.92
2023-11-30T07:58:29.142Z,23.92
2023-11-30T07:59:32.110Z,24.30
2023-11-30T08:00:34.974Z,22.23
2023-11-30T08:01:37.731Z,20.95
2023-11-30T08:02:40.476Z,23.88
2023-11-30T08:03:44.201Z,24.08
2023-11-30T08:04:46.752Z,22.17
2023-11-30T08:05:49.705Z,24.17
2023-11-30T08:06:52.700Z,28.02
2023-11-30T08:07:58.530Z,27.95
2023-11-30T08:09:02.160Z,25.88
2023-11-30T08:10:06.886Z,29.77
2023-11-30T08:11:09.628Z,31.10
2023-11-30T08:12:12.100Z,32.78
2023-11-30T08:13:16.581Z,29.45
2023-11-30T08:14:19.559Z,28.27
2023-11-30T08:15:24.889Z,28.15
2023-11-30T08:16:27.651Z,26.95
2023-11-30T08:17:30.198Z,26.48
2023-11-30T08:18:36.051Z,28.00
2023-11-30T08:19:42.498Z,25.00
2023-11-30T08:20:45.685Z,26.88
2023-11-30T08:21:50.573Z,25.42
2023-11-30T08:22:53.377Z,28.48
2023-11-30T08:23:55.885Z,25.83
2023-11-30T08:25:00.636Z,25.42
2023-11-30T08:27:10.378Z,21.77
2023-11-30T08:28:13.175Z,23.40
2023-11-30T08:29:16.879Z,22.85
2023-11-30T08:30:19.337Z,20.83
2023-11-30T08:31:23.143Z,23.15
2023-11-30T08:32:26.167Z,22.30
2023-11-30T08:33:29.838Z,23.73
2023-11-30T08:34:32.385Z,22.05
2023-11-30T08:35:35.042Z,21.33
2023-11-30T08:36:37.547Z,21.52
2023-11-30T08:37:40.038Z,22.10
2023-11-30T08:38:42.569Z,21.25
2023-11-30T08:39:47.180Z,22.30
2023-11-30T08:40:50.511Z,23.33
2023-11-30T08:41:54.603Z,25.92
2023-11-30T08:42:57.257Z,23.73
2023-11-30T08:43:59.857Z,27.08
2023-11-30T08:45:04.349Z,30.80
2023-11-30T08:46:07.459Z,33.47
2023-11-30T08:47:10.061Z,30.25
2023-11-30T08:48:13.031Z,31.20
2023-11-30T08:49:15.854Z,28.50
2023-11-30T08:50:18.696Z,35.53
2023-11-30T08:51:21.500Z,32.83
2023-11-30T08:52:24.557Z,32.00
2023-11-30T08:53:27.346Z,30.13
2023-11-30T08:54:29.856Z,31.10
2023-11-30T08:55:35.998Z,30.08
2023-11-30T08:56:38.825Z,26.02
2023-11-30T08:57:43.567Z,25.67
2023-11-30T08:58:48.041Z,25.33
2023-11-30T08:59:52.192Z,26.73
2023-11-30T09:00:54.977Z,23.15
2023-11-30T09:01:57.619Z,22.48
2023-11-30T09:03:00.281Z,28.40
2023-11-30T09:04:06.653Z,28.40
2023-11-30T09:05:10.681Z,28.20
2023-11-30T09:06:13.537Z,23.40
2023-11-30T09:07:16.306Z,24.50
2023-11-30T09:08:19.406Z,24.73
2023-11-30T09:09:22.198Z,20.27
2023-11-30T09:10:25.007Z,23.42
2023-11-30T09:11:27.730Z,24.83
2023-11-30T09:12:30.448Z,22.65
2023-11-30T09:13:37.034Z,21.83
2023-11-30T09:14:40.753Z,23.30
2023-11-30T09:15:51.343Z,23.67
2023-11-30T09:16:53.902Z,19.60
2023-11-30T09:17:59.571Z,23.42
2023-11-30T09:19:02.431Z,22.90
2023-11-30T09:20:09.271Z,22.90
2023-11-30T09:21:12.457Z,20.98
2023-11-30T09:22:16.431Z,22.02
2023-11-30T09:23:19.238Z,22.63
2023-11-30T09:24:25.817Z,24.63
2023-11-30T09:25:28.681Z,22.80
2023-11-30T09:26:33.241Z,21.25
2023-11-30T09:27:36.126Z,21.33
2023-11-30T09:28:39.534Z,23.75
2023-11-30T09:29:42.115Z,20.80
2023-11-30T09:30:44.613Z,19.90
2023-11-30T09:31:47.648Z,21.25
2023-11-30T09:32:54.313Z,20.20
2023-11-30T09:33:57.479Z,20.45
2023-11-30T09:35:00.378Z,21.80
2023-11-30T09:36:03.770Z,23.10
2023-11-30T09:37:06.727Z,25.42
2023-11-30T09:38:10.969Z,28.88
2023-11-30T09:39:18.507Z,31.42
2023-11-30T09:40:21.309Z,24.48
2023-11-30T09:41:24.492Z,21.38
2023-11-30T09:42:28.401Z,24.02
2023-11-30T09:43:31.694Z,17.90
2023-11-30T09:44:34.662Z,20.70
2023-11-30T09:45:38.537Z,19.40
2023-11-30T09:46:41.137Z,20.35
2023-11-30T09:47:43.727Z,22.75
2023-11-30T09:48:47.257Z,20.85
2023-11-30T09:49:50.446Z,21.10
2023-11-30T09:50:53.637Z,20.58
2023-11-30T09:51:58.069Z,20.67
2023-11-30T09:54:03.189Z,18.52
2023-11-30T09:55:12.740Z,18.73
2023-11-30T09:56:17.018Z,18.23
2023-11-30T09:57:20.286Z,19.77
2023-11-30T09:58:23.097Z,23.45
2023-11-30T09:59:27.947Z,20.70
2023-11-30T10:00:30.887Z,20.75
2023-11-30T10:01:34.248Z,20.70
2023-11-30T10:02:37.019Z,22.10
2023-11-30T10:03:40.024Z,21.10
2023-11-30T10:04:42.915Z,19.80
2023-11-30T10:05:45.532Z,19.60
2023-11-30T10:06:48.506Z,27.48
2023-11-30T10:07:50.968Z,26.02
2023-11-30T10:08:53.768Z,22.75
2023-11-30T10:09:56.883Z,22.20
2023-11-30T10:10:59.605Z,23.58
2023-11-30T10:12:02.534Z,23.90
2023-11-30T10:13:05.542Z,20.95
2023-11-30T10:14:09.296Z,18.35
2023-11-30T10:15:12.279Z,21.08
2023-11-30T10:16:15.291Z,21.38
2023-11-30T10:17:18.268Z,21.50
2023-11-30T10:18:21.050Z,23.23
2023-11-30T10:19:23.863Z,21.35
2023-11-30T10:20:27.276Z,21.95
2023-11-30T10:21:32.992Z,22.75
2023-11-30T10:22:35.551Z,19.40
2023-11-30T10:23:38.399Z,23.60
2023-11-30T10:24:41.310Z,19.55
2023-11-30T10:25:43.770Z,21.88
2023-11-30T10:26:52.251Z,22.27
2023-11-30T10:27:56.087Z,24.00
2023-11-30T10:29:05.714Z,23.08
2023-11-30T10:30:12.831Z,21.98
2023-11-30T10:31:18.094Z,23.25
2023-11-30T10:32:23.487Z,24.63
2023-11-30T10:33:28.387Z,25.23
2023-11-30T10:34:36.501Z,25.00
2023-11-30T10:35:42.465Z,34.45
2023-11-30T10:36:45.211Z,30.85
2023-11-30T10:37:51.806Z,41.28
2023-11-30T10:39:02.883Z,33.40
2023-11-30T10:40:11.966Z,29.83
2023-11-30T10:41:20.868Z,21.13
2023-11-30T10:42:25.057Z,20.90
2023-11-30T10:43:28.007Z,21.65
2023-11-30T10:44:32.733Z,19.67
2023-11-30T10:45:37.288Z,21.77
2023-11-30T10:46:40.065Z,23.08
2023-11-30T10:47:46.620Z,21.17
2023-11-30T10:48:49.182Z,17.52
2023-11-30T10:49:52.449Z,20.10
2023-11-30T10:50:55.635Z,19.02
2023-11-30T10:52:03.173Z,20.10
2023-11-30T10:53:12.461Z,24.00
2023-11-30T10:54:22.721Z,22.20
2023-11-30T10:55:26.249Z,20.25
2023-11-30T10:56:30.165Z,20.55
2023-11-30T10:57:33.176Z,19.33
2023-11-30T10:58:37.537Z,20.02
2023-11-30T10:59:44.238Z,23.95
2023-11-30T11:00:56.402Z,23.38
2023-11-30T11:02:00.231Z,21.73
2023-11-30T11:03:08.926Z,21.30
2023-11-30T11:04:14.383Z,19.17
2023-11-30T11:05:20.360Z,24.88
2023-11-30T11:06:29.455Z,25.15
2023-11-30T11:07:32.140Z,26.05
2023-11-30T11:08:34.970Z,21.85
2023-11-30T11:09:53.626Z,21.83
2023-11-30T11:11:06.945Z,22.05
2023-11-30T11:12:20.742Z,20.65
2023-11-30T11:13:25.709Z,21.08
2023-11-30T11:14:35.118Z,22.17
2023-11-30T11:15:37.787Z,21.75
2023-11-30T11:16:45.713Z,26.58
2023-11-30T11:17:54.535Z,24.83
2023-11-30T11:19:02.080Z,25.02
2023-11-30T11:20:06.784Z,23.30
2023-11-30T11:21:25.150Z,27.05
2023-11-30T11:22:30.159Z,22.55
2023-11-30T11:23:37.237Z,28.52
2023-11-30T11:24:43.462Z,24.83
2023-11-30T11:25:47.564Z,25.42
2023-11-30T11:26:59.288Z,23.45
2023-11-30T11:28:01.806Z,23.38
2023-11-30T11:29:04.190Z,22.38
2023-11-30T11:30:09.478Z,19.92
2023-11-30T11:31:13.966Z,21.75
2023-11-30T11:33:20.807Z,21.33
2023-11-30T11:35:33.046Z,17.90
2023-11-30T11:36:39.164Z,23.75
2023-11-30T11:37:42.446Z,25.45
2023-11-30T11:38:45.202Z,22.20
2023-11-30T11:39:49.997Z,21.23
2023-11-30T11:40:54.951Z,25.60
2023-11-30T11:41:57.577Z,26.08
2023-11-30T11:43:00.940Z,25.23
2023-11-30T11:44:06.211Z,24.38
2023-11-30T11:45:09.481Z,24.83
2023-11-30T11:46:12.699Z,26.90
2023-11-30T11:47:15.638Z,27.65
2023-11-30T11:48:18.212Z,27.00
2023-11-30T11:49:24.919Z,28.80
2023-11-30T11:50:27.973Z,22.33
2023-11-30T11:51:30.852Z,22.23
2023-11-30T11:52:34.726Z,26.75
2023-11-30T11:53:42.068Z,27.48
2023-11-30T11:54:44.591Z,25.83
2023-11-30T11:55:47.540Z,24.80
2023-11-30T11:56:52.106Z,27.05
2023-11-30T11:57:57.876Z,20.42
2023-11-30T11:59:05.042Z,24.52
2023-11-30T12:00:33.180Z,21.80
2023-11-30T12:03:09.797Z,23.08
2023-11-30T12:04:38.284Z,21.25
2023-11-30T12:05:48.449Z,21.35
2023-11-30T12:06:51.337Z,23.20
2023-11-30T12:07:58.006Z,17.98
2023-11-30T12:09:14.292Z,19.90
2023-11-30T12:10:43.121Z,22.00
2023-11-30T12:11:45.596Z,22.63
2023-11-30T12:12:48.137Z,27.10
2023-11-30T12:13:53.704Z,29.33
2023-11-30T12:14:56.916Z,33.42
2023-11-30T12:15:59.470Z,36.55
2023-11-30T12:17:03.205Z,39.33
2023-11-30T12:18:06.165Z,39.70
2023-11-30T12:19:08.522Z,32.70
2023-11-30T12:20:11.450Z,32.78
2023-11-30T12:21:15.151Z,40.83
2023-11-30T12:22:18.236Z,45.28
2023-11-30T12:23:21.047Z,49.65
2023-11-30T12:24:24.190Z,41.75
2023-11-30T12:25:29.512Z,40.15
2023-11-30T12:26:32.547Z,41.55
2023-11-30T12:27:34.955Z,48.70
2023-11-30T12:28:38.187Z,47.78
2023-11-30T12:29:41.089Z,39.85
2023-11-30T12:30:44.187Z,39.92
2023-11-30T12:31:46.611Z,28.60
2023-11-30T12:32:50.343Z,33.72
2023-11-30T12:33:53.607Z,35.55
2023-11-30T12:34:58.524Z,33.95
2023-11-30T12:36:03.152Z,33.30
2023-11-30T12:37:07.699Z,32.28
2023-11-30T12:38:18.807Z,24.88
2023-11-30T12:39:22.496Z,23.98
2023-11-30T12:40:26.314Z,21.65
2023-11-30T12:41:28.862Z,22.40
2023-11-30T12:42:32.440Z,21.17
2023-11-30T12:43:35.596Z,18.95
2023-11-30T12:44:41.377Z,22.48
2023-11-30T12:45:45.232Z,19.40
2023-11-30T12:46:47.707Z,19.85
2023-11-30T12:47:53.794Z,19.42
2023-11-30T12:48:56.840Z,19.98
2023-11-30T12:49:59.653Z,20.15
2023-11-30T12:51:02.670Z,20.13
2023-11-30T12:52:07.150Z,22.75
2023-11-30T12:53:09.655Z,22.58
2023-11-30T12:54:13.931Z,22.23
2023-11-30T12:55:20.087Z,24.10
2023-11-30T12:56:23.153Z,21.05
2023-11-30T12:57:26.063Z,21.10
2023-11-30T12:58:32.879Z,22.15
2023-11-30T12:59:36.184Z,21.98
2023-11-30T13:00:38.836Z,20.67
2023-11-30T13:01:41.666Z,21.10
2023-11-30T13:02:47.027Z,19.98
2023-11-30T13:03:49.822Z,19.30
2023-11-30T13:04:52.281Z,21.42
2023-11-30T13:05:54.585Z,21.25
2023-11-30T13:06:58.440Z,19.15
2023-11-30T13:08:00.917Z,19.92
2023-11-30T13:09:03.622Z,20.80
2023-11-30T13:10:07.004Z,20.38
2023-11-30T13:11:09.893Z,22.42
2023-11-30T13:12:13.602Z,22.13
2023-11-30T13:13:16.660Z,17.05
2023-11-30T13:14:22.224Z,22.10
2023-11-30T13:15:25.122Z,22.75
2023-11-30T13:17:34.514Z,20.98
2023-11-30T13:18:38.149Z,22.20
2023-11-30T13:19:43.716Z,19.48
2023-11-30T13:20:48.990Z,18.50
2023-11-30T13:21:52.066Z,19.45
2023-11-30T13:22:54.800Z,19.77
2023-11-30T13:23:57.441Z,20.23
2023-11-30T13:25:00.425Z,20.77
2023-11-30T13:26:03.069Z,23.35
2023-11-30T13:27:05.966Z,25.00
2023-11-30T13:28:08.606Z,25.38
2023-11-30T13:29:11.324Z,22.70
2023-11-30T13:30:18.364Z,21.35
2023-11-30T13:31:21.768Z,21.33
2023-11-30T13:32:25.032Z,20.75
2023-11-30T13:33:27.709Z,22.05
2023-11-30T13:34:30.966Z,22.65
2023-11-30T13:35:33.328Z,20.80
2023-11-30T13:36:35.952Z,18.23
2023-11-30T13:37:39.599Z,20.48
2023-11-30T13:38:43.158Z,20.67
2023-11-30T13:39:45.688Z,17.67
2023-11-30T13:40:48.105Z,18.85
2023-11-30T13:41:50.642Z,20.05
2023-11-30T13:42:53.548Z,20.40
2023-11-30T13:43:56.524Z,20.38
2023-11-30T13:44:58.931Z,22.98
2023-11-30T13:46:01.448Z,22.42
2023-11-30T13:47:04.615Z,21.25
2023-11-30T13:48:08.081Z,23.10
2023-11-30T13:49:15.069Z,22.98
2023-11-30T13:50:26.280Z,22.70
2023-11-30T13:51:33.923Z,20.90
2023-11-30T13:52:36.981Z,23.83